»·PEaware :: N285SR KALW-8W5

N285SR :: KALW-8W5

FLIGHT INFORMATION

Flight Status: Arrived
Operator: Privately registered:
United States
More flights under this callsign
Pilot: Scott R. (20908)
Aircraft: SOCATA TBM-900
(TBM9)
More flights by this aircraft type
Origin: KALW Walla Walla Regl
United States
Destination: 8W5 Apex Airpark
United States
More flights between these airports :: More routes between these airports
Route:
File this flight plan on PilotEdge
Remarks:
Altitude:
(Current/Filed)
14,500ft
Speed:
(Current/Filed)
260kts
Departed: 10-Sep-20 01:50 PM
Arrived: 10-Sep-20 02:48 PM
Distance/Time
Traveled:
205nm/0:58
Distance/Time
To Go:
Arrived

Flight Plot

Page will automatically refresh every two minutes.

Flight plan parsing failed; only flown route is shown


Map Options




Map Legend


Flown Route
Filed Route
Departure Airport
Arrival Airport
Navaid (VOR, NDB)
Fix

Horizontal Profiles

Position Reports

Time Latitude Longitude Heading Altitude Ground
Speed
10-Sep-20 13:37 46.094552 -118.277165 125 1208ft 0kts
10-Sep-20 13:38 46.094552 -118.277165 125 1208ft 0kts
10-Sep-20 13:39 46.094552 -118.277165 125 1208ft 0kts
10-Sep-20 13:40 46.094552 -118.277165 125 1208ft 0kts
10-Sep-20 13:41 46.094552 -118.277165 125 1208ft 0kts
10-Sep-20 13:42 46.094552 -118.277165 125 1208ft 0kts
10-Sep-20 13:43 46.094552 -118.277165 125 1208ft 0kts
10-Sep-20 13:44 46.094552 -118.277165 125 1208ft 0kts
10-Sep-20 13:45 46.094538 -118.277133 118 1208ft 0kts
10-Sep-20 13:46 46.095139 -118.277571 301 1208ft 5kts
10-Sep-20 13:47 46.096701 -118.277037 36 1208ft 13kts
10-Sep-20 13:48 46.099096 -118.276951 246 1208ft 15kts
10-Sep-20 13:49 46.076410 -118.301940 219 2310ft 136kts
10-Sep-20 13:50 46.071798 -118.348706 285 4550ft 132kts
10-Sep-20 13:51 46.081788 -118.399790 285 6596ft 134kts
10-Sep-20 13:52 46.092370 -118.451763 285 8472ft 137kts
10-Sep-20 13:53 46.103273 -118.504960 285 10204ft 140kts
10-Sep-20 13:54 46.113985 -118.559927 285 11901ft 145kts
10-Sep-20 13:55 46.124674 -118.617096 285 13952ft 148kts
10-Sep-20 13:56 46.137406 -118.687165 285 14544ft 222kts
10-Sep-20 13:57 46.155037 -118.782658 285 14507ft 258kts
10-Sep-20 13:58 46.174147 -118.885489 285 14493ft 266kts
10-Sep-20 13:59 46.193497 -118.989363 285 14480ft 268kts
10-Sep-20 14:00 46.213083 -119.094267 285 14472ft 269kts
10-Sep-20 14:01 46.232699 -119.199148 285 14472ft 269kts
10-Sep-20 14:02 46.252346 -119.303988 285 14472ft 269kts
10-Sep-20 14:03 46.272113 -119.409249 285 14472ft 269kts
10-Sep-20 14:04 46.291963 -119.514689 285 14472ft 269kts
10-Sep-20 14:05 46.311773 -119.619675 286 14472ft 269kts
10-Sep-20 14:06 46.331633 -119.724705 285 14472ft 269kts
10-Sep-20 14:07 46.353145 -119.829530 287 14480ft 269kts
10-Sep-20 14:08 46.375954 -119.934932 287 14510ft 276kts
10-Sep-20 14:09 46.399120 -120.042453 287 14512ft 279kts
10-Sep-20 14:10 46.422400 -120.151078 287 14519ft 279kts
10-Sep-20 14:11 46.445517 -120.259511 287 14528ft 279kts
10-Sep-20 14:12 46.468536 -120.368038 287 14527ft 279kts
10-Sep-20 14:13 46.491362 -120.476267 287 14527ft 279kts
10-Sep-20 14:14 46.514219 -120.585176 287 14527ft 279kts
10-Sep-20 14:15 46.536961 -120.694124 287 14527ft 279kts
10-Sep-20 14:16 46.559550 -120.802952 287 14527ft 279kts
10-Sep-20 14:17 46.581987 -120.911598 287 14509ft 279kts
10-Sep-20 14:18 46.604393 -121.020697 287 14509ft 279kts
10-Sep-20 14:19 46.626720 -121.130017 287 14509ft 279kts
10-Sep-20 14:20 46.648916 -121.239308 287 14509ft 279kts
10-Sep-20 14:21 46.671116 -121.349220 287 14509ft 279kts
10-Sep-20 14:22 46.693123 -121.458779 287 14509ft 279kts
10-Sep-20 14:23 46.714927 -121.567939 287 14509ft 279kts
10-Sep-20 14:24 46.736696 -121.677522 286 14519ft 279kts
10-Sep-20 14:25 46.758253 -121.786703 286 14536ft 279kts
10-Sep-20 14:26 46.779791 -121.896309 286 14554ft 278kts
10-Sep-20 14:27 46.801243 -122.006153 286 14533ft 279kts
10-Sep-20 14:28 46.822600 -122.116125 286 14476ft 281kts
10-Sep-20 14:29 46.844237 -122.228192 286 14437ft 280kts
10-Sep-20 14:30 46.865930 -122.338909 293 14427ft 279kts
10-Sep-20 14:31 46.897044 -122.444474 294 14436ft 279kts
10-Sep-20 14:32 46.928114 -122.549726 294 14435ft 279kts
10-Sep-20 14:33 46.960810 -122.653564 303 14430ft 278kts
10-Sep-20 14:34 47.022256 -122.710412 351 13752ft 271kts
10-Sep-20 14:35 47.096887 -122.725394 358 12427ft 268kts
10-Sep-20 14:36 47.172123 -122.727354 359 11116ft 269kts
10-Sep-20 14:37 47.247599 -122.729578 359 9802ft 269kts
10-Sep-20 14:38 47.321182 -122.732159 359 8480ft 250kts
10-Sep-20 14:39 47.389212 -122.735207 359 7145ft 237kts
10-Sep-20 14:40 47.455462 -122.739012 359 5811ft 231kts
10-Sep-20 14:41 47.519769 -122.742820 359 4489ft 227kts
10-Sep-20 14:42 47.582131 -122.745972 359 3428ft 218kts
10-Sep-20 14:43 47.631484 -122.761014 295 2679ft 175kts
10-Sep-20 14:44 47.606354 -122.793489 136 2179ft 159kts
10-Sep-20 14:45 47.616900 -122.747981 24 1387ft 120kts
10-Sep-20 14:46 47.642214 -122.736069 13 723ft 83kts
10-Sep-20 14:47 47.658567 -122.732759 6 527ft 21kts
10-Sep-20 14:48 47.659753 -122.732302 181 527ft 0kts
10-Sep-20 14:49 47.659753 -122.732302 181 527ft 0kts
10-Sep-20 14:50 47.659753 -122.732302 181 527ft 0kts

Navigation Log

Ident Type
Flight plan parsing failed, navigation log unavailable